createdAt,value
2022-12-18T00:07:52.270Z,-5.30
2022-12-18T00:17:56.091Z,-5.30
2022-12-18T00:28:01.148Z,-5.30
2022-12-18T00:38:04.843Z,-5.30
2022-12-18T00:48:09.906Z,-5.30
2022-12-18T00:58:16.138Z,-5.20
2022-12-18T01:08:21.287Z,-5.30
2022-12-18T01:18:24.941Z,-5.30
2022-12-18T01:28:30.216Z,-5.30
2022-12-18T01:38:34.029Z,-5.30
2022-12-18T01:48:39.691Z,-5.20
2022-12-18T01:58:52.969Z,-5.30
2022-12-18T02:09:08.826Z,-5.30
2022-12-18T02:19:36.077Z,-5.30
2022-12-18T02:29:46.654Z,-5.30
2022-12-18T02:39:52.412Z,-5.20
2022-12-18T02:50:12.565Z,-5.30
2022-12-18T03:00:21.552Z,-5.30
2022-12-18T03:10:32.083Z,-5.30
2022-12-18T03:20:39.019Z,-5.30
2022-12-18T03:30:48.740Z,-5.30
2022-12-18T03:41:02.254Z,-5.40
2022-12-18T03:51:18.573Z,-5.30
2022-12-18T04:01:28.971Z,-5.30
2022-12-18T04:11:35.424Z,-5.30
2022-12-18T04:21:41.025Z,-5.30
2022-12-18T04:31:48.289Z,-5.30
2022-12-18T04:41:53.442Z,-5.30
2022-12-18T04:51:58.746Z,-5.30
2022-12-18T05:02:02.451Z,-5.40
2022-12-18T05:12:08.376Z,-5.30
2022-12-18T05:22:12.513Z,-5.40
2022-12-18T05:32:17.766Z,-5.30
2022-12-18T05:42:21.637Z,-5.30
2022-12-18T05:52:27.003Z,-5.30
2022-12-18T06:02:31.007Z,-5.20
2022-12-18T06:12:36.945Z,-5.20
2022-12-18T06:22:43.575Z,-5.20
2022-12-18T06:32:54.669Z,-5.20
2022-12-18T06:43:00.310Z,-5.20
2022-12-18T06:53:05.473Z,-5.20
2022-12-18T07:03:11.689Z,-5.20
2022-12-18T07:13:17.236Z,-5.10
2022-12-18T07:23:20.883Z,-5.00
2022-12-18T07:33:26.035Z,-4.80
2022-12-18T07:43:30.452Z,-4.60
2022-12-18T07:53:36.540Z,-4.30
2022-12-18T08:03:42.904Z,-4.10
2022-12-18T08:13:48.375Z,-3.80
2022-12-18T08:23:56.791Z,-3.30
2022-12-18T08:34:02.056Z,-3.00
2022-12-18T08:44:38.340Z,-2.70
2022-12-18T08:54:43.507Z,-2.20
2022-12-18T09:04:55.464Z,-1.90
2022-12-18T09:15:02.409Z,-1.30
2022-12-18T09:25:08.955Z,-0.80
2022-12-18T09:35:15.635Z,-0.50
2022-12-18T09:45:20.596Z,-0.10
2022-12-18T09:55:36.895Z,0.80
2022-12-18T10:05:55.447Z,2.90
2022-12-18T10:16:13.601Z,4.90
2022-12-18T10:26:17.729Z,7.30
2022-12-18T10:36:24.941Z,16.00
2022-12-18T10:46:29.520Z,20.00
2022-12-18T10:56:38.182Z,22.30
2022-12-18T11:07:00.995Z,23.50
2022-12-18T11:17:25.447Z,24.40
2022-12-18T11:27:32.400Z,23.70
2022-12-18T11:37:38.798Z,24.70
2022-12-18T11:47:48.661Z,24.40
2022-12-18T11:58:04.225Z,24.00
2022-12-18T12:08:17.749Z,14.10
2022-12-18T12:18:38.670Z,13.70
2022-12-18T12:29:20.974Z,18.50
2022-12-18T12:39:33.723Z,20.00
2022-12-18T12:49:40.581Z,19.00
2022-12-18T13:00:01.381Z,17.50
2022-12-18T13:10:33.382Z,17.70
2022-12-18T13:20:41.417Z,17.80
2022-12-18T13:30:53.743Z,16.40
2022-12-18T13:41:03.198Z,14.80
2022-12-18T13:51:11.378Z,12.80
2022-12-18T14:01:27.224Z,9.90
2022-12-18T14:11:32.702Z,3.90
2022-12-18T14:21:40.373Z,0.20
2022-12-18T14:31:43.909Z,-2.20
2022-12-18T14:41:51.900Z,-3.90
2022-12-18T14:52:04.437Z,-5.30
2022-12-18T15:02:25.271Z,-6.00
2022-12-18T15:12:38.779Z,-6.60
2022-12-18T15:22:44.622Z,-7.00
2022-12-18T15:32:49.970Z,-7.60
2022-12-18T15:43:29.704Z,-8.00
2022-12-18T15:53:35.581Z,-8.20
2022-12-18T16:03:41.199Z,-8.90
2022-12-18T16:13:45.077Z,-9.30
2022-12-18T16:23:51.002Z,-9.80
2022-12-18T16:34:13.680Z,-10.00
2022-12-18T16:44:19.060Z,-10.50
2022-12-18T16:54:22.780Z,-10.90
2022-12-18T17:04:28.186Z,-11.10
2022-12-18T17:14:33.087Z,-11.40
2022-12-18T17:24:38.234Z,-11.80
2022-12-18T17:34:42.246Z,-12.30
2022-12-18T17:44:47.381Z,-12.30
2022-12-18T17:54:51.133Z,-12.40
2022-12-18T18:04:56.184Z,-12.40
2022-12-18T18:14:59.943Z,-12.50
2022-12-18T18:25:11.606Z,-12.50
2022-12-18T18:35:30.960Z,-12.70
2022-12-18T18:45:40.328Z,-13.10
2022-12-18T18:55:51.697Z,-13.10
2022-12-18T19:06:05.445Z,-13.40
2022-12-18T19:16:10.834Z,-12.80
2022-12-18T19:26:27.368Z,-13.50
2022-12-18T19:36:33.460Z,-13.60
2022-12-18T19:46:41.881Z,-13.80
2022-12-18T19:56:48.739Z,-13.90
2022-12-18T20:06:55.576Z,-13.90
2022-12-18T20:16:59.270Z,-14.00
2022-12-18T20:27:09.772Z,-14.10
2022-12-18T20:37:17.193Z,-14.00
2022-12-18T20:47:24.462Z,-14.10
2022-12-18T20:57:28.468Z,-14.20
2022-12-18T21:07:33.741Z,-14.40
2022-12-18T21:17:44.678Z,-14.60
2022-12-18T21:27:50.232Z,-14.60
2022-12-18T21:37:54.077Z,-14.60
2022-12-18T21:47:59.203Z,-14.70
2022-12-18T21:58:02.971Z,-14.60
2022-12-18T22:08:08.276Z,-14.80
2022-12-18T22:18:13.581Z,-14.90
2022-12-18T22:28:36.182Z,-14.90
2022-12-18T22:38:40.007Z,-15.30
2022-12-18T22:48:45.736Z,-15.50
2022-12-18T22:58:50.339Z,-15.50
2022-12-18T23:08:57.503Z,-16.00
2022-12-18T23:19:01.220Z,-16.10
2022-12-18T23:29:06.837Z,-16.20
2022-12-18T23:39:17.471Z,-16.30
2022-12-18T23:49:35.305Z,-16.20
2022-12-18T23:59:39.481Z,-16.40
